createdAt,value
2022-11-13T00:02:12.899Z,58.27
2022-11-13T00:04:59.380Z,59.30
2022-11-13T00:07:45.979Z,59.40
2022-11-13T00:10:32.541Z,58.60
2022-11-13T00:13:20.572Z,59.47
2022-11-13T00:16:09.298Z,59.37
2022-11-13T00:18:55.379Z,59.87
2022-11-13T00:21:41.921Z,60.90
2022-11-13T00:24:28.666Z,61.73
2022-11-13T00:27:15.170Z,60.63
2022-11-13T00:30:03.154Z,62.63
2022-11-13T00:32:49.474Z,62.37
2022-11-13T00:35:36.076Z,60.87
2022-11-13T00:38:22.581Z,61.40
2022-11-13T00:41:09.227Z,60.10
2022-11-13T00:43:55.618Z,59.63
2022-11-13T00:46:43.552Z,58.23
2022-11-13T00:49:30.175Z,58.90
2022-11-13T00:52:16.769Z,59.63
2022-11-13T00:55:02.996Z,61.10
2022-11-13T00:57:49.463Z,62.33
2022-11-13T01:00:37.145Z,64.00
2022-11-13T01:03:24.756Z,63.23
2022-11-13T01:06:14.698Z,64.60
2022-11-13T01:09:01.381Z,68.23
2022-11-13T01:11:47.792Z,68.93
2022-11-13T01:14:34.392Z,68.87
2022-11-13T01:17:20.926Z,69.27
2022-11-13T01:20:09.943Z,68.30
2022-11-13T01:22:56.131Z,67.93
2022-11-13T01:25:42.646Z,68.57
2022-11-13T01:28:29.428Z,68.67
2022-11-13T01:31:18.224Z,68.13
2022-11-13T01:34:04.756Z,73.07
2022-11-13T01:36:52.885Z,73.20
2022-11-13T01:39:39.191Z,74.47
2022-11-13T01:42:25.737Z,74.20
2022-11-13T01:45:49.190Z,72.17
2022-11-13T01:48:39.865Z,72.30
2022-11-13T01:51:31.709Z,69.47
2022-11-13T01:54:24.052Z,67.43
2022-11-13T01:57:11.262Z,66.97
2022-11-13T02:00:01.685Z,68.37
2022-11-13T02:02:48.509Z,65.13
2022-11-13T02:05:35.082Z,67.20
2022-11-13T02:08:21.872Z,66.53
2022-11-13T02:11:10.063Z,66.43
2022-11-13T02:13:56.639Z,66.03
2022-11-13T02:16:45.115Z,64.53
2022-11-13T02:19:34.336Z,64.77
2022-11-13T02:22:27.329Z,67.00
2022-11-13T02:25:15.566Z,65.67
2022-11-13T02:28:01.832Z,67.40
2022-11-13T02:30:48.345Z,66.17
2022-11-13T02:33:35.041Z,64.17
2022-11-13T02:36:25.128Z,65.43
2022-11-13T02:39:14.165Z,65.00
2022-11-13T02:42:02.235Z,65.93
2022-11-13T02:44:48.899Z,64.67
2022-11-13T02:47:35.611Z,65.60
2022-11-13T02:50:22.140Z,65.70
2022-11-13T02:53:08.759Z,62.33
2022-11-13T02:55:55.456Z,65.83
2022-11-13T02:58:43.579Z,62.23
2022-11-13T03:01:30.064Z,62.97
2022-11-13T03:04:16.754Z,62.97
2022-11-13T03:07:03.093Z,63.30
2022-11-13T03:09:49.600Z,64.30
2022-11-13T03:12:36.111Z,66.47
2022-11-13T03:15:24.159Z,65.77
2022-11-13T03:18:12.044Z,64.57
2022-11-13T03:20:58.564Z,64.13
2022-11-13T03:23:46.168Z,63.93
2022-11-13T03:26:32.669Z,66.20
2022-11-13T03:29:19.198Z,64.07
2022-11-13T03:32:07.575Z,64.50
2022-11-13T03:34:53.791Z,67.07
2022-11-13T03:37:40.555Z,67.50
2022-11-13T03:40:27.034Z,68.07
2022-11-13T03:43:13.587Z,67.17
2022-11-13T03:46:00.010Z,68.73
2022-11-13T03:48:47.825Z,65.20
2022-11-13T03:51:34.321Z,63.40
2022-11-13T03:54:20.953Z,64.93
2022-11-13T03:57:07.764Z,66.57
2022-11-13T03:59:54.117Z,64.90
2022-11-13T04:02:40.914Z,66.13
2022-11-13T04:05:28.953Z,70.17
2022-11-13T04:08:15.444Z,65.93
2022-11-13T04:11:07.889Z,68.00
2022-11-13T04:13:54.536Z,70.50
2022-11-13T04:16:40.975Z,72.53
2022-11-13T04:19:27.510Z,73.33
2022-11-13T04:22:15.388Z,71.10
2022-11-13T04:25:02.027Z,73.13
2022-11-13T04:27:50.587Z,75.60
2022-11-13T04:30:36.925Z,76.30
2022-11-13T04:33:23.507Z,79.37
2022-11-13T04:36:10.424Z,82.57
2022-11-13T04:38:58.097Z,78.37
2022-11-13T04:42:02.532Z,78.23
2022-11-13T04:44:48.716Z,76.67
2022-11-13T04:47:35.644Z,78.80
2022-11-13T04:50:22.038Z,77.70
2022-11-13T04:53:08.251Z,84.17
2022-11-13T04:55:56.337Z,82.90
2022-11-13T04:58:42.919Z,84.20
2022-11-13T05:01:29.480Z,79.97
2022-11-13T05:04:16.477Z,78.53
2022-11-13T05:07:02.894Z,78.23
2022-11-13T05:09:49.391Z,76.77
2022-11-13T05:12:37.114Z,78.87
2022-11-13T05:15:23.602Z,79.77
2022-11-13T05:18:10.071Z,79.70
2022-11-13T05:20:56.543Z,76.53
2022-11-13T05:23:43.127Z,70.77
2022-11-13T05:26:29.895Z,67.87
2022-11-13T05:29:17.604Z,67.60
2022-11-13T05:32:04.194Z,68.03
2022-11-13T05:34:50.840Z,65.50
2022-11-13T05:37:37.254Z,69.73
2022-11-13T05:40:23.858Z,70.83
2022-11-13T05:43:10.673Z,73.57
2022-11-13T05:46:03.330Z,73.77
2022-11-13T05:48:53.664Z,74.57
2022-11-13T05:51:40.077Z,75.67
2022-11-13T05:54:26.424Z,76.80
2022-11-13T05:57:13.080Z,78.13
2022-11-13T05:59:59.532Z,78.10
2022-11-13T06:02:47.516Z,81.53
2022-11-13T06:05:36.192Z,79.87
2022-11-13T06:08:22.670Z,80.67
2022-11-13T06:11:11.438Z,76.53
2022-11-13T06:13:59.318Z,75.53
2022-11-13T06:16:45.945Z,74.73
2022-11-13T06:19:33.704Z,74.60
2022-11-13T06:22:20.238Z,73.17
2022-11-13T06:25:07.709Z,74.07
2022-11-13T06:27:54.698Z,72.50
2022-11-13T06:30:41.127Z,72.53
2022-11-13T06:33:29.537Z,70.37
2022-11-13T06:36:18.983Z,69.03
2022-11-13T06:39:08.558Z,68.87
2022-11-13T06:41:55.207Z,68.47
2022-11-13T06:44:41.697Z,64.63
2022-11-13T06:47:29.535Z,65.83
2022-11-13T06:50:16.044Z,66.10
2022-11-13T06:53:04.055Z,63.17
2022-11-13T06:55:52.071Z,60.33
2022-11-13T06:58:38.941Z,60.80
2022-11-13T07:01:27.470Z,59.27
2022-11-13T07:04:14.495Z,58.03
2022-11-13T07:07:01.385Z,59.47
2022-11-13T07:09:49.144Z,63.23
2022-11-13T07:12:35.655Z,63.07
2022-11-13T07:15:22.137Z,65.20
2022-11-13T07:18:08.707Z,63.90
2022-11-13T07:20:55.268Z,66.27
2022-11-13T07:23:43.454Z,64.80
2022-11-13T07:26:31.374Z,65.17
2022-11-13T07:29:17.921Z,65.17
2022-11-13T07:32:04.332Z,65.00
2022-11-13T07:34:50.943Z,66.50
2022-11-13T07:37:37.461Z,61.80
2022-11-13T07:40:24.064Z,63.00
2022-11-13T07:43:12.133Z,64.57
2022-11-13T07:45:59.358Z,63.93
2022-11-13T07:48:45.793Z,62.07
2022-11-13T07:51:32.393Z,61.37
2022-11-13T07:54:18.899Z,64.13
2022-11-13T07:57:05.231Z,68.10
2022-11-13T07:59:53.146Z,68.90
2022-11-13T08:02:39.573Z,70.90
2022-11-13T08:05:26.179Z,68.50
2022-11-13T08:08:14.027Z,70.23
2022-11-13T08:11:05.167Z,72.40
2022-11-13T08:13:51.509Z,72.23
2022-11-13T08:16:39.558Z,71.77
2022-11-13T08:19:26.184Z,75.03
2022-11-13T08:22:12.636Z,73.23
2022-11-13T08:24:58.933Z,74.50
2022-11-13T08:27:45.929Z,72.60
2022-11-13T08:30:32.602Z,72.10
2022-11-13T08:33:20.414Z,70.27
2022-11-13T08:36:07.311Z,70.30
2022-11-13T08:38:53.464Z,71.17
2022-11-13T08:41:39.913Z,71.73
2022-11-13T08:44:26.636Z,70.40
2022-11-13T08:47:13.644Z,74.23
2022-11-13T08:50:01.462Z,67.90
2022-11-13T08:52:47.947Z,68.77
2022-11-13T08:55:35.290Z,67.97
2022-11-13T08:58:21.480Z,71.33
2022-11-13T09:01:08.193Z,71.63
2022-11-13T09:03:54.497Z,71.97
2022-11-13T09:06:42.390Z,70.20
2022-11-13T09:09:28.921Z,67.03
2022-11-13T09:12:15.639Z,63.13
2022-11-13T09:15:02.239Z,61.67
2022-11-13T09:17:48.844Z,58.57
2022-11-13T09:20:35.396Z,61.87
2022-11-13T09:23:23.326Z,63.10
2022-11-13T09:26:09.523Z,64.63
2022-11-13T09:28:56.362Z,61.17
2022-11-13T09:31:42.886Z,60.30
2022-11-13T09:34:29.983Z,58.67
2022-11-13T09:37:17.168Z,59.33
2022-11-13T09:40:05.223Z,57.07
2022-11-13T09:42:52.571Z,62.10
2022-11-13T09:45:41.534Z,63.10
2022-11-13T09:48:34.296Z,59.80
2022-11-13T09:51:23.754Z,61.40
2022-11-13T09:54:15.063Z,61.23
2022-11-13T09:57:11.561Z,59.63
2022-11-13T10:00:02.953Z,60.90
2022-11-13T10:03:02.634Z,60.23
2022-11-13T10:05:57.947Z,61.97
2022-11-13T10:08:54.711Z,59.77
2022-11-13T10:11:47.170Z,58.70
2022-11-13T10:14:39.046Z,56.77
2022-11-13T10:17:32.377Z,57.07
2022-11-13T10:20:25.195Z,58.53
2022-11-13T10:23:17.758Z,58.53
2022-11-13T10:26:15.376Z,57.77
2022-11-13T10:29:06.878Z,58.57
2022-11-13T10:31:54.533Z,58.07
2022-11-13T10:34:42.574Z,59.37
2022-11-13T10:37:44.285Z,57.20
2022-11-13T10:40:32.632Z,57.60
2022-11-13T10:43:21.521Z,57.63
2022-11-13T10:46:08.132Z,56.60
2022-11-13T10:48:56.134Z,55.53
2022-11-13T10:51:42.881Z,56.97
2022-11-13T10:54:31.836Z,57.33
2022-11-13T10:57:29.088Z,56.57
2022-11-13T11:00:24.956Z,56.00
2022-11-13T11:03:16.159Z,55.17
2022-11-13T11:06:05.721Z,53.80
2022-11-13T11:08:52.255Z,54.00
2022-11-13T11:11:56.517Z,51.90
2022-11-13T11:15:00.925Z,51.70
2022-11-13T11:17:50.371Z,52.07
2022-11-13T11:20:44.997Z,49.40
2022-11-13T11:23:41.383Z,50.67
2022-11-13T11:26:33.482Z,48.50
2022-11-13T11:29:27.298Z,48.63
2022-11-13T11:32:20.259Z,47.80
2022-11-13T11:35:15.628Z,48.20
2022-11-13T11:38:09.905Z,49.33
2022-11-13T11:41:16.215Z,49.87
2022-11-13T11:44:11.555Z,50.00
2022-11-13T11:46:58.033Z,49.80
2022-11-13T11:49:45.070Z,51.13
2022-11-13T11:52:43.673Z,51.47
2022-11-13T11:55:57.139Z,50.67
2022-11-13T11:59:02.059Z,50.80
2022-11-13T12:02:14.976Z,50.30
2022-11-13T12:05:23.944Z,47.20
2022-11-13T12:08:19.962Z,55.10
2022-11-13T12:11:15.522Z,52.07
2022-11-13T12:14:14.878Z,47.97
2022-11-13T12:17:17.499Z,48.47
2022-11-13T12:20:15.008Z,50.77
2022-11-13T12:23:15.849Z,50.23
2022-11-13T12:26:05.832Z,48.13
2022-11-13T12:29:01.703Z,49.70
2022-11-13T12:32:03.513Z,49.50
2022-11-13T12:34:53.359Z,51.30
2022-11-13T12:37:48.900Z,52.50
2022-11-13T12:40:44.442Z,54.97
2022-11-13T12:43:57.667Z,53.00
2022-11-13T12:46:45.191Z,52.60
2022-11-13T12:49:35.270Z,51.93
2022-11-13T12:52:24.585Z,50.03
2022-11-13T12:55:29.189Z,48.07
2022-11-13T12:58:22.129Z,49.53
2022-11-13T13:01:18.630Z,52.13
2022-11-13T13:04:27.906Z,51.63
2022-11-13T13:07:31.711Z,51.77
2022-11-13T13:10:25.399Z,49.20
2022-11-13T13:13:23.924Z,49.47
2022-11-13T13:16:12.128Z,50.30
2022-11-13T13:19:08.965Z,48.97
2022-11-13T13:21:56.426Z,48.70
2022-11-13T13:24:44.302Z,48.03
2022-11-13T13:27:34.068Z,48.70
2022-11-13T13:30:22.724Z,48.77
2022-11-13T13:33:21.934Z,47.33
2022-11-13T13:36:20.437Z,46.73
2022-11-13T13:39:20.437Z,48.07
2022-11-13T13:42:28.098Z,46.70
2022-11-13T13:45:25.773Z,46.43
2022-11-13T13:48:14.965Z,45.63
2022-11-13T13:51:02.104Z,46.23
2022-11-13T13:53:50.311Z,46.67
2022-11-13T13:56:42.590Z,45.13
2022-11-13T13:59:34.369Z,46.30
2022-11-13T14:02:23.282Z,46.77
2022-11-13T14:05:24.908Z,44.67
2022-11-13T14:08:18.565Z,46.43
2022-11-13T14:11:18.026Z,45.93
2022-11-13T14:14:16.974Z,45.67
2022-11-13T14:17:05.596Z,45.37
2022-11-13T14:19:52.735Z,45.37
2022-11-13T14:22:39.464Z,45.47
2022-11-13T14:25:29.119Z,46.03
2022-11-13T14:28:17.983Z,47.50
2022-11-13T14:31:08.079Z,46.67
2022-11-13T14:33:56.145Z,49.03
2022-11-13T14:36:43.732Z,47.63
2022-11-13T14:39:33.328Z,47.53
2022-11-13T14:42:23.792Z,48.57
2022-11-13T14:45:19.828Z,47.43
2022-11-13T14:48:19.733Z,47.67
2022-11-13T14:51:24.137Z,50.07
2022-11-13T14:54:46.853Z,50.83
2022-11-13T14:57:36.944Z,49.97
2022-11-13T15:00:30.002Z,51.57
2022-11-13T15:03:16.346Z,52.77
2022-11-13T15:06:03.029Z,51.93
2022-11-13T15:08:55.414Z,51.80
2022-11-13T15:11:41.902Z,54.17
2022-11-13T15:14:28.189Z,54.13
2022-11-13T15:17:18.530Z,54.00
2022-11-13T15:20:09.603Z,55.53
2022-11-13T15:22:58.251Z,56.53
2022-11-13T15:25:45.841Z,57.43
2022-11-13T15:28:32.324Z,57.27
2022-11-13T15:31:21.713Z,57.07
2022-11-13T15:34:11.145Z,57.03
2022-11-13T15:36:57.648Z,58.23
2022-11-13T15:39:44.235Z,58.73
2022-11-13T15:42:35.588Z,58.37
2022-11-13T15:45:22.104Z,61.00
2022-11-13T15:48:10.498Z,62.63
2022-11-13T15:50:56.895Z,62.57
2022-11-13T15:53:43.445Z,61.23
2022-11-13T15:56:31.076Z,63.90
2022-11-13T15:59:19.197Z,64.00
2022-11-13T16:02:06.383Z,66.37
2022-11-13T16:04:57.380Z,65.10
2022-11-13T16:07:50.556Z,68.03
2022-11-13T16:10:44.247Z,66.63
2022-11-13T16:13:34.528Z,65.17
2022-11-13T16:16:24.653Z,63.00
2022-11-13T16:19:14.171Z,61.43
2022-11-13T16:22:00.358Z,60.33
2022-11-13T16:24:46.924Z,60.70
2022-11-13T16:27:34.108Z,62.17
2022-11-13T16:30:23.085Z,62.60
2022-11-13T16:33:11.532Z,62.03
2022-11-13T16:35:58.473Z,63.07
2022-11-13T16:38:45.112Z,61.33
2022-11-13T16:41:32.789Z,63.33
2022-11-13T16:44:19.398Z,63.23
2022-11-13T16:47:07.281Z,61.13
2022-11-13T16:49:55.445Z,62.50
2022-11-13T16:52:42.453Z,62.77
2022-11-13T16:55:28.844Z,62.30
2022-11-13T16:58:15.512Z,62.10
2022-11-13T17:01:01.921Z,63.80
2022-11-13T17:03:48.445Z,65.37
2022-11-13T17:06:37.480Z,65.57
2022-11-13T17:09:24.571Z,64.63
2022-11-13T17:12:21.932Z,64.90
2022-11-13T17:15:11.001Z,64.40
2022-11-13T17:17:58.545Z,68.30
2022-11-13T17:20:45.381Z,67.93
2022-11-13T17:23:34.523Z,70.40
2022-11-13T17:26:21.344Z,73.10
2022-11-13T17:29:07.991Z,73.47
2022-11-13T17:31:54.481Z,74.83
2022-11-13T17:34:43.739Z,74.80
2022-11-13T17:37:30.405Z,74.63
2022-11-13T17:40:21.064Z,77.87
2022-11-13T17:43:08.758Z,78.70
2022-11-13T17:46:01.585Z,77.43
2022-11-13T17:48:48.648Z,77.43
2022-11-13T17:51:35.184Z,78.23
2022-11-13T17:54:21.738Z,79.07
2022-11-13T17:57:10.472Z,78.47
2022-11-13T17:59:56.964Z,78.00
2022-11-13T18:02:43.524Z,80.63
2022-11-13T18:05:29.963Z,79.87
2022-11-13T18:08:16.499Z,80.37
2022-11-13T18:11:08.259Z,81.33
2022-11-13T18:13:57.547Z,82.10
2022-11-13T18:16:43.729Z,80.63
2022-11-13T18:19:30.467Z,79.50
2022-11-13T18:22:17.164Z,79.53
2022-11-13T18:25:04.244Z,80.63
2022-11-13T18:27:50.559Z,80.43
2022-11-13T18:30:40.557Z,80.27
2022-11-13T18:33:27.682Z,82.10
2022-11-13T18:36:15.037Z,85.70
2022-11-13T18:39:03.267Z,91.17
2022-11-13T18:41:50.592Z,86.63
2022-11-13T18:44:37.481Z,84.30
2022-11-13T18:47:25.687Z,86.93
2022-11-13T18:50:12.300Z,89.20
2022-11-13T18:52:58.810Z,87.57
2022-11-13T18:55:45.168Z,89.10
2022-11-13T18:58:32.183Z,90.17
2022-11-13T19:01:22.612Z,89.57
2022-11-13T19:04:27.452Z,91.37
2022-11-13T19:07:13.802Z,89.93
2022-11-13T19:10:00.350Z,90.27
2022-11-13T19:12:46.877Z,92.33
2022-11-13T19:15:34.417Z,90.97
2022-11-13T19:18:20.869Z,87.37
2022-11-13T19:21:10.811Z,89.80
2022-11-13T19:23:58.536Z,87.23
2022-11-13T19:26:46.007Z,90.27
2022-11-13T19:29:32.870Z,87.43
2022-11-13T19:32:19.618Z,88.93
2022-11-13T19:35:06.746Z,86.03
2022-11-13T19:37:59.100Z,86.07
2022-11-13T19:40:47.489Z,89.67
2022-11-13T19:43:34.282Z,87.40
2022-11-13T19:46:21.800Z,87.07
2022-11-13T19:49:10.236Z,87.37
2022-11-13T19:51:56.924Z,91.50
2022-11-13T19:54:45.216Z,92.17
2022-11-13T19:57:42.078Z,93.17
2022-11-13T20:00:31.810Z,90.63
2022-11-13T20:03:18.751Z,93.67
2022-11-13T20:06:06.331Z,96.60
2022-11-13T20:08:52.994Z,96.50
2022-11-13T20:11:40.730Z,98.80
2022-11-13T20:14:27.304Z,99.90
2022-11-13T20:17:14.059Z,99.10
2022-11-13T20:20:01.071Z,101.47
2022-11-13T20:22:47.369Z,99.90
2022-11-13T20:25:40.687Z,98.20
2022-11-13T20:28:29.495Z,103.03
2022-11-13T20:31:19.690Z,98.43
2022-11-13T20:34:06.354Z,95.80
2022-11-13T20:36:53.339Z,92.03
2022-11-13T20:39:41.975Z,92.70
2022-11-13T20:42:29.295Z,95.27
2022-11-13T20:45:17.367Z,93.37
2022-11-13T20:48:03.989Z,95.70
2022-11-13T20:50:50.442Z,93.37
2022-11-13T20:53:37.306Z,96.10
2022-11-13T20:56:25.913Z,94.30
2022-11-13T20:59:12.065Z,93.97
2022-11-13T21:01:59.918Z,92.83
2022-11-13T21:04:46.547Z,91.20
2022-11-13T21:07:32.849Z,92.87
2022-11-13T21:10:19.848Z,93.50
2022-11-13T21:13:06.200Z,93.87
2022-11-13T21:15:52.884Z,98.07
2022-11-13T21:18:40.968Z,98.53
2022-11-13T21:21:29.049Z,98.90
2022-11-13T21:24:15.791Z,95.30
2022-11-13T21:27:02.286Z,97.27
2022-11-13T21:29:48.970Z,107.33
2022-11-13T21:32:35.378Z,98.33
2022-11-13T21:35:23.233Z,98.63
2022-11-13T21:38:09.856Z,105.87
2022-11-13T21:41:14.387Z,108.77
2022-11-13T21:44:03.364Z,104.10
2022-11-13T21:46:50.026Z,107.93
2022-11-13T21:49:36.722Z,104.70
2022-11-13T21:52:24.541Z,99.40
2022-11-13T21:55:12.023Z,132.10
2022-11-13T21:57:58.888Z,111.43
2022-11-13T22:00:45.756Z,128.20
2022-11-13T22:03:32.520Z,104.60
2022-11-13T22:06:21.376Z,111.53
2022-11-13T22:09:14.916Z,108.87
2022-11-13T22:12:01.455Z,106.70
2022-11-13T22:14:48.113Z,109.63
2022-11-13T22:17:34.566Z,124.40
2022-11-13T22:20:21.342Z,108.43
2022-11-13T22:23:07.744Z,116.77
2022-11-13T22:26:00.442Z,122.67
2022-11-13T22:28:48.063Z,123.70
2022-11-13T22:31:35.104Z,111.70
2022-11-13T22:34:21.415Z,105.93
2022-11-13T22:37:07.825Z,110.30
2022-11-13T22:39:54.236Z,125.30
2022-11-13T22:42:42.334Z,121.23
2022-11-13T22:45:28.549Z,111.10
2022-11-13T22:48:15.134Z,152.37
2022-11-13T22:51:06.436Z,120.87
2022-11-13T22:53:54.207Z,113.73
2022-11-13T22:56:42.063Z,105.97
2022-11-13T22:59:29.643Z,131.33
2022-11-13T23:02:16.186Z,105.77
2022-11-13T23:05:02.805Z,115.13
2022-11-13T23:07:49.843Z,105.87
2022-11-13T23:10:36.098Z,109.30
2022-11-13T23:13:22.706Z,108.77
2022-11-13T23:16:11.447Z,109.47
2022-11-13T23:18:59.280Z,114.37
2022-11-13T23:21:46.774Z,120.90
2022-11-13T23:24:33.354Z,110.33
2022-11-13T23:27:19.686Z,115.90
2022-11-13T23:30:07.392Z,108.73
2022-11-13T23:32:55.424Z,113.97
2022-11-13T23:35:42.709Z,108.73
2022-11-13T23:38:29.355Z,113.17
2022-11-13T23:41:16.164Z,110.63
2022-11-13T23:44:08.879Z,107.47
2022-11-13T23:46:55.590Z,113.67
2022-11-13T23:49:43.536Z,105.90
2022-11-13T23:52:30.123Z,123.10
2022-11-13T23:55:17.206Z,102.77
2022-11-13T23:58:05.516Z,135.73
